sensor_id;sensor_type;location;lat;lon;timestamp;P1;durP1;ratioP1;P2;durP2;ratioP2
17858;SDS011;35426;30.698;104.050;2022-07-23T00:00:58;55.50;;;35.07;;
17858;SDS011;35426;30.698;104.050;2022-07-23T00:03:33;57.87;;;34.73;;
17858;SDS011;35426;30.698;104.050;2022-07-23T00:06:06;59.27;;;33.43;;
17858;SDS011;35426;30.698;104.050;2022-07-23T00:08:41;62.03;;;35.13;;
17858;SDS011;35426;30.698;104.050;2022-07-23T00:11:18;55.73;;;34.27;;
17858;SDS011;35426;30.698;104.050;2022-07-23T00:13:52;56.17;;;35.33;;
17858;SDS011;35426;30.698;104.050;2022-07-23T00:16:26;57.77;;;34.40;;
17858;SDS011;35426;30.698;104.050;2022-07-23T00:19:00;58.67;;;35.40;;
17858;SDS011;35426;30.698;104.050;2022-07-23T00:21:34;56.73;;;33.13;;
17858;SDS011;35426;30.698;104.050;2022-07-23T00:24:08;53.17;;;32.33;;
17858;SDS011;35426;30.698;104.050;2022-07-23T00:26:43;54.97;;;34.30;;
17858;SDS011;35426;30.698;104.050;2022-07-23T00:29:17;51.70;;;32.60;;
17858;SDS011;35426;30.698;104.050;2022-07-23T00:31:51;52.00;;;32.10;;
17858;SDS011;35426;30.698;104.050;2022-07-23T00:34:25;51.17;;;30.17;;
17858;SDS011;35426;30.698;104.050;2022-07-23T00:36:59;48.73;;;30.87;;
17858;SDS011;35426;30.698;104.050;2022-07-23T00:39:32;43.07;;;28.87;;
17858;SDS011;35426;30.698;104.050;2022-07-23T00:42:08;52.20;;;30.10;;
17858;SDS011;35426;30.698;104.050;2022-07-23T00:44:41;38.77;;;27.10;;
17858;SDS011;35426;30.698;104.050;2022-07-23T00:47:16;44.83;;;26.93;;
17858;SDS011;35426;30.698;104.050;2022-07-23T00:49:50;42.87;;;27.27;;
17858;SDS011;35426;30.698;104.050;2022-07-23T00:52:23;44.13;;;27.90;;
17858;SDS011;35426;30.698;104.050;2022-07-23T00:54:57;45.78;;;29.27;;
17858;SDS011;35426;30.698;104.050;2022-07-23T00:57:33;43.95;;;28.15;;
17858;SDS011;35426;30.698;104.050;2022-07-23T01:00:09;47.83;;;28.38;;
17858;SDS011;35426;30.698;104.050;2022-07-23T01:02:44;54.33;;;32.33;;
17858;SDS011;35426;30.698;104.050;2022-07-23T01:05:17;60.00;;;34.17;;
17858;SDS011;35426;30.698;104.050;2022-07-23T01:07:52;55.08;;;32.60;;
17858;SDS011;35426;30.698;104.050;2022-07-23T01:10:27;56.88;;;33.47;;
17858;SDS011;35426;30.698;104.050;2022-07-23T01:13:08;55.25;;;34.53;;
17858;SDS011;35426;30.698;104.050;2022-07-23T01:15:42;52.53;;;31.45;;
17858;SDS011;35426;30.698;104.050;2022-07-23T01:18:15;46.25;;;27.58;;
17858;SDS011;35426;30.698;104.050;2022-07-23T01:20:49;42.45;;;26.77;;
17858;SDS011;35426;30.698;104.050;2022-07-23T01:23:28;40.45;;;26.20;;
17858;SDS011;35426;30.698;104.050;2022-07-23T01:26:01;41.80;;;25.80;;
17858;SDS011;35426;30.698;104.050;2022-07-23T01:28:38;40.25;;;26.02;;
17858;SDS011;35426;30.698;104.050;2022-07-23T01:31:12;42.13;;;24.65;;
17858;SDS011;35426;30.698;104.050;2022-07-23T01:33:47;37.63;;;26.13;;
17858;SDS011;35426;30.698;104.050;2022-07-23T01:36:21;37.00;;;25.25;;
17858;SDS011;35426;30.698;104.050;2022-07-23T01:38:57;39.17;;;25.88;;
17858;SDS011;35426;30.698;104.050;2022-07-23T01:41:32;41.20;;;26.88;;
17858;SDS011;35426;30.698;104.050;2022-07-23T01:44:07;41.08;;;28.35;;
17858;SDS011;35426;30.698;104.050;2022-07-23T01:46:41;36.00;;;23.10;;
17858;SDS011;35426;30.698;104.050;2022-07-23T01:49:16;39.80;;;27.33;;
17858;SDS011;35426;30.698;104.050;2022-07-23T01:52:08;42.67;;;28.58;;
17858;SDS011;35426;30.698;104.050;2022-07-23T01:54:48;42.65;;;27.70;;
17858;SDS011;35426;30.698;104.050;2022-07-23T01:57:21;40.35;;;27.52;;
17858;SDS011;35426;30.698;104.050;2022-07-23T01:59:55;40.55;;;25.58;;
17858;SDS011;35426;30.698;104.050;2022-07-23T02:02:39;38.95;;;26.23;;
17858;SDS011;35426;30.698;104.050;2022-07-23T02:05:13;37.05;;;26.13;;
17858;SDS011;35426;30.698;104.050;2022-07-23T02:07:46;39.58;;;25.75;;
17858;SDS011;35426;30.698;104.050;2022-07-23T02:10:22;37.78;;;25.85;;
17858;SDS011;35426;30.698;104.050;2022-07-23T02:12:56;36.50;;;24.27;;
17858;SDS011;35426;30.698;104.050;2022-07-23T02:15:30;37.65;;;24.70;;
17858;SDS011;35426;30.698;104.050;2022-07-23T02:18:04;37.25;;;23.85;;
17858;SDS011;35426;30.698;104.050;2022-07-23T02:20:39;34.45;;;22.63;;
17858;SDS011;35426;30.698;104.050;2022-07-23T02:23:14;36.95;;;22.05;;
17858;SDS011;35426;30.698;104.050;2022-07-23T02:25:51;35.20;;;21.60;;
17858;SDS011;35426;30.698;104.050;2022-07-23T02:28:24;37.25;;;21.45;;
17858;SDS011;35426;30.698;104.050;2022-07-23T02:30:58;29.20;;;19.05;;
17858;SDS011;35426;30.698;104.050;2022-07-23T02:33:34;32.75;;;20.77;;
17858;SDS011;35426;30.698;104.050;2022-07-23T02:36:09;36.05;;;20.75;;
17858;SDS011;35426;30.698;104.050;2022-07-23T02:38:43;32.42;;;19.05;;
17858;SDS011;35426;30.698;104.050;2022-07-23T02:41:19;31.38;;;19.67;;
17858;SDS011;35426;30.698;104.050;2022-07-23T02:43:55;32.72;;;19.05;;
17858;SDS011;35426;30.698;104.050;2022-07-23T02:46:29;38.03;;;22.52;;
17858;SDS011;35426;30.698;104.050;2022-07-23T02:49:03;36.75;;;21.95;;
17858;SDS011;35426;30.698;104.050;2022-07-23T02:51:38;39.25;;;22.67;;
17858;SDS011;35426;30.698;104.050;2022-07-23T02:54:21;38.80;;;22.38;;
17858;SDS011;35426;30.698;104.050;2022-07-23T02:56:57;42.97;;;23.35;;
17858;SDS011;35426;30.698;104.050;2022-07-23T02:59:30;49.08;;;26.63;;
17858;SDS011;35426;30.698;104.050;2022-07-23T03:02:04;44.90;;;24.13;;
17858;SDS011;35426;30.698;104.050;2022-07-23T03:04:38;43.90;;;23.92;;
17858;SDS011;35426;30.698;104.050;2022-07-23T03:07:13;39.95;;;23.27;;
17858;SDS011;35426;30.698;104.050;2022-07-23T03:09:48;45.03;;;24.75;;
17858;SDS011;35426;30.698;104.050;2022-07-23T03:12:25;45.13;;;26.08;;
17858;SDS011;35426;30.698;104.050;2022-07-23T03:17:58;44.40;;;24.17;;
17858;SDS011;35426;30.698;104.050;2022-07-23T03:20:33;43.67;;;25.88;;
17858;SDS011;35426;30.698;104.050;2022-07-23T03:23:10;49.78;;;26.77;;
17858;SDS011;35426;30.698;104.050;2022-07-23T03:25:44;53.33;;;27.13;;
17858;SDS011;35426;30.698;104.050;2022-07-23T03:28:24;51.80;;;26.30;;
17858;SDS011;35426;30.698;104.050;2022-07-23T03:31:01;41.85;;;22.70;;
17858;SDS011;35426;30.698;104.050;2022-07-23T03:33:37;44.65;;;24.38;;
17858;SDS011;35426;30.698;104.050;2022-07-23T03:36:11;45.72;;;24.83;;
17858;SDS011;35426;30.698;104.050;2022-07-23T03:38:49;50.13;;;25.20;;
17858;SDS011;35426;30.698;104.050;2022-07-23T03:41:23;40.75;;;24.13;;
17858;SDS011;35426;30.698;104.050;2022-07-23T03:43:59;50.08;;;24.58;;
17858;SDS011;35426;30.698;104.050;2022-07-23T03:46:33;41.08;;;23.35;;
17858;SDS011;35426;30.698;104.050;2022-07-23T03:49:07;44.60;;;26.25;;
17858;SDS011;35426;30.698;104.050;2022-07-23T03:51:41;40.58;;;22.23;;
17858;SDS011;35426;30.698;104.050;2022-07-23T03:54:15;49.55;;;25.77;;
17858;SDS011;35426;30.698;104.050;2022-07-23T03:57:16;41.03;;;22.60;;
17858;SDS011;35426;30.698;104.050;2022-07-23T03:59:52;47.55;;;25.83;;
17858;SDS011;35426;30.698;104.050;2022-07-23T04:02:26;41.38;;;23.70;;
17858;SDS011;35426;30.698;104.050;2022-07-23T04:05:00;37.88;;;21.48;;
17858;SDS011;35426;30.698;104.050;2022-07-23T04:07:34;44.50;;;23.67;;
17858;SDS011;35426;30.698;104.050;2022-07-23T04:10:08;39.97;;;22.80;;
17858;SDS011;35426;30.698;104.050;2022-07-23T04:12:43;42.70;;;22.38;;
17858;SDS011;35426;30.698;104.050;2022-07-23T04:15:19;38.17;;;22.38;;
17858;SDS011;35426;30.698;104.050;2022-07-23T04:17:53;45.83;;;23.80;;
17858;SDS011;35426;30.698;104.050;2022-07-23T04:20:37;43.53;;;23.45;;
17858;SDS011;35426;30.698;104.050;2022-07-23T04:23:11;41.15;;;20.30;;
17858;SDS011;35426;30.698;104.050;2022-07-23T04:25:47;40.50;;;21.23;;
17858;SDS011;35426;30.698;104.050;2022-07-23T04:28:21;35.58;;;20.48;;
17858;SDS011;35426;30.698;104.050;2022-07-23T04:30:59;36.97;;;20.60;;
17858;SDS011;35426;30.698;104.050;2022-07-23T04:33:35;37.28;;;20.30;;
17858;SDS011;35426;30.698;104.050;2022-07-23T04:36:10;36.40;;;19.42;;
17858;SDS011;35426;30.698;104.050;2022-07-23T04:38:44;40.88;;;20.17;;
17858;SDS011;35426;30.698;104.050;2022-07-23T04:41:20;34.00;;;18.83;;
17858;SDS011;35426;30.698;104.050;2022-07-23T04:43:56;33.28;;;17.27;;
17858;SDS011;35426;30.698;104.050;2022-07-23T04:46:32;33.03;;;18.42;;
17858;SDS011;35426;30.698;104.050;2022-07-23T04:49:08;31.25;;;17.27;;
17858;SDS011;35426;30.698;104.050;2022-07-23T04:51:42;28.92;;;16.45;;
17858;SDS011;35426;30.698;104.050;2022-07-23T04:54:29;29.50;;;17.48;;
17858;SDS011;35426;30.698;104.050;2022-07-23T04:57:03;30.08;;;16.70;;
17858;SDS011;35426;30.698;104.050;2022-07-23T04:59:38;29.75;;;17.45;;
17858;SDS011;35426;30.698;104.050;2022-07-23T05:02:15;34.53;;;17.13;;
17858;SDS011;35426;30.698;104.050;2022-07-23T05:04:50;30.67;;;17.35;;
17858;SDS011;35426;30.698;104.050;2022-07-23T05:07:24;28.50;;;14.52;;
17858;SDS011;35426;30.698;104.050;2022-07-23T05:09:58;21.40;;;11.93;;
17858;SDS011;35426;30.698;104.050;2022-07-23T05:12:32;21.48;;;11.32;;
17858;SDS011;35426;30.698;104.050;2022-07-23T05:15:07;16.40;;;9.05;;
17858;SDS011;35426;30.698;104.050;2022-07-23T05:17:43;16.90;;;10.10;;
17858;SDS011;35426;30.698;104.050;2022-07-23T05:20:18;9.52;;;5.97;;
17858;SDS011;35426;30.698;104.050;2022-07-23T05:22:52;13.43;;;6.90;;
17858;SDS011;35426;30.698;104.050;2022-07-23T05:25:26;10.55;;;7.00;;
17858;SDS011;35426;30.698;104.050;2022-07-23T05:28:01;12.65;;;8.35;;
17858;SDS011;35426;30.698;104.050;2022-07-23T05:30:37;14.30;;;8.38;;
17858;SDS011;35426;30.698;104.050;2022-07-23T05:33:16;14.18;;;7.68;;
17858;SDS011;35426;30.698;104.050;2022-07-23T05:35:52;12.77;;;7.63;;
17858;SDS011;35426;30.698;104.050;2022-07-23T05:38:35;13.50;;;7.15;;
17858;SDS011;35426;30.698;104.050;2022-07-23T05:41:09;11.80;;;6.93;;
17858;SDS011;35426;30.698;104.050;2022-07-23T05:43:44;11.90;;;6.47;;
17858;SDS011;35426;30.698;104.050;2022-07-23T05:46:19;11.80;;;6.72;;
17858;SDS011;35426;30.698;104.050;2022-07-23T05:49:00;10.68;;;7.25;;
17858;SDS011;35426;30.698;104.050;2022-07-23T05:51:55;11.57;;;6.85;;
17858;SDS011;35426;30.698;104.050;2022-07-23T05:54:41;10.93;;;6.88;;
17858;SDS011;35426;30.698;104.050;2022-07-23T05:57:16;13.63;;;7.15;;
17858;SDS011;35426;30.698;104.050;2022-07-23T05:59:52;12.98;;;6.85;;
17858;SDS011;35426;30.698;104.050;2022-07-23T06:02:28;13.45;;;6.20;;
17858;SDS011;35426;30.698;104.050;2022-07-23T06:05:04;10.82;;;6.43;;
17858;SDS011;35426;30.698;104.050;2022-07-23T06:07:39;12.85;;;6.97;;
17858;SDS011;35426;30.698;104.050;2022-07-23T06:10:15;9.52;;;6.13;;
17858;SDS011;35426;30.698;104.050;2022-07-23T06:12:52;10.73;;;6.50;;
17858;SDS011;35426;30.698;104.050;2022-07-23T06:15:49;10.20;;;6.38;;
17858;SDS011;35426;30.698;104.050;2022-07-23T06:18:23;10.85;;;6.40;;
17858;SDS011;35426;30.698;104.050;2022-07-23T06:20:59;10.20;;;6.22;;
17858;SDS011;35426;30.698;104.050;2022-07-23T06:23:54;13.27;;;7.32;;
17858;SDS011;35426;30.698;104.050;2022-07-23T06:26:27;8.55;;;6.10;;
17858;SDS011;35426;30.698;104.050;2022-07-23T06:29:11;13.40;;;6.47;;
17858;SDS011;35426;30.698;104.050;2022-07-23T06:31:45;9.90;;;6.72;;
17858;SDS011;35426;30.698;104.050;2022-07-23T06:34:19;13.88;;;6.97;;
17858;SDS011;35426;30.698;104.050;2022-07-23T06:36:57;12.23;;;6.00;;
17858;SDS011;35426;30.698;104.050;2022-07-23T06:39:31;10.40;;;6.65;;
17858;SDS011;35426;30.698;104.050;2022-07-23T06:42:05;9.57;;;6.07;;
17858;SDS011;35426;30.698;104.050;2022-07-23T06:44:45;10.50;;;6.10;;
17858;SDS011;35426;30.698;104.050;2022-07-23T06:47:20;12.52;;;6.70;;
17858;SDS011;35426;30.698;104.050;2022-07-23T06:49:54;11.27;;;6.10;;
17858;SDS011;35426;30.698;104.050;2022-07-23T06:52:30;9.77;;;6.30;;
17858;SDS011;35426;30.698;104.050;2022-07-23T06:55:10;10.10;;;6.15;;
17858;SDS011;35426;30.698;104.050;2022-07-23T06:57:45;8.80;;;5.85;;
17858;SDS011;35426;30.698;104.050;2022-07-23T07:00:19;11.88;;;5.75;;
17858;SDS011;35426;30.698;104.050;2022-07-23T07:02:56;9.35;;;6.57;;
17858;SDS011;35426;30.698;104.050;2022-07-23T07:05:32;11.30;;;6.80;;
17858;SDS011;35426;30.698;104.050;2022-07-23T07:08:08;13.35;;;7.20;;
17858;SDS011;35426;30.698;104.050;2022-07-23T07:10:42;11.20;;;7.30;;
17858;SDS011;35426;30.698;104.050;2022-07-23T07:13:18;12.98;;;7.47;;
17858;SDS011;35426;30.698;104.050;2022-07-23T07:16:04;10.68;;;6.28;;
17858;SDS011;35426;30.698;104.050;2022-07-23T07:18:38;10.63;;;6.20;;
17858;SDS011;35426;30.698;104.050;2022-07-23T07:21:12;8.95;;;5.72;;
17858;SDS011;35426;30.698;104.050;2022-07-23T07:23:48;9.63;;;5.60;;
17858;SDS011;35426;30.698;104.050;2022-07-23T07:26:23;8.32;;;5.43;;
17858;SDS011;35426;30.698;104.050;2022-07-23T07:28:57;10.05;;;5.60;;
17858;SDS011;35426;30.698;104.050;2022-07-23T07:31:32;9.88;;;5.72;;
17858;SDS011;35426;30.698;104.050;2022-07-23T07:34:06;11.05;;;5.80;;
17858;SDS011;35426;30.698;104.050;2022-07-23T07:36:41;11.38;;;6.00;;
17858;SDS011;35426;30.698;104.050;2022-07-23T07:39:17;7.47;;;5.25;;
17858;SDS011;35426;30.698;104.050;2022-07-23T07:41:51;9.90;;;5.80;;
17858;SDS011;35426;30.698;104.050;2022-07-23T07:44:26;8.48;;;4.90;;
17858;SDS011;35426;30.698;104.050;2022-07-23T07:47:00;9.48;;;5.20;;
17858;SDS011;35426;30.698;104.050;2022-07-23T07:49:34;10.25;;;5.00;;
17858;SDS011;35426;30.698;104.050;2022-07-23T07:52:09;9.00;;;5.47;;
17858;SDS011;35426;30.698;104.050;2022-07-23T07:54:45;9.95;;;5.43;;
17858;SDS011;35426;30.698;104.050;2022-07-23T07:57:20;8.68;;;5.43;;
17858;SDS011;35426;30.698;104.050;2022-07-23T07:59:58;7.47;;;4.97;;
17858;SDS011;35426;30.698;104.050;2022-07-23T08:02:43;10.05;;;4.82;;
17858;SDS011;35426;30.698;104.050;2022-07-23T08:05:19;8.85;;;4.82;;
17858;SDS011;35426;30.698;104.050;2022-07-23T08:07:55;6.88;;;4.70;;
17858;SDS011;35426;30.698;104.050;2022-07-23T08:10:33;9.02;;;4.85;;
17858;SDS011;35426;30.698;104.050;2022-07-23T08:13:11;6.70;;;4.20;;
17858;SDS011;35426;30.698;104.050;2022-07-23T08:15:46;6.13;;;4.10;;
17858;SDS011;35426;30.698;104.050;2022-07-23T08:18:23;6.93;;;4.10;;
17858;SDS011;35426;30.698;104.050;2022-07-23T08:20:57;7.90;;;4.75;;
17858;SDS011;35426;30.698;104.050;2022-07-23T08:23:33;8.75;;;4.40;;
17858;SDS011;35426;30.698;104.050;2022-07-23T08:26:10;8.90;;;4.55;;
17858;SDS011;35426;30.698;104.050;2022-07-23T08:28:47;6.60;;;3.80;;
17858;SDS011;35426;30.698;104.050;2022-07-23T08:31:21;7.18;;;4.07;;
17858;SDS011;35426;30.698;104.050;2022-07-23T08:33:57;7.15;;;4.05;;
17858;SDS011;35426;30.698;104.050;2022-07-23T08:36:32;8.90;;;4.00;;
17858;SDS011;35426;30.698;104.050;2022-07-23T08:39:07;6.15;;;3.67;;
17858;SDS011;35426;30.698;104.050;2022-07-23T08:41:42;8.77;;;3.75;;
17858;SDS011;35426;30.698;104.050;2022-07-23T08:44:18;5.35;;;3.60;;
17858;SDS011;35426;30.698;104.050;2022-07-23T08:46:52;5.68;;;3.65;;
17858;SDS011;35426;30.698;104.050;2022-07-23T08:49:27;7.15;;;3.83;;
17858;SDS011;35426;30.698;104.050;2022-07-23T08:52:06;8.02;;;4.07;;
17858;SDS011;35426;30.698;104.050;2022-07-23T08:54:41;8.65;;;4.47;;
17858;SDS011;35426;30.698;104.050;2022-07-23T08:57:17;8.50;;;4.53;;
17858;SDS011;35426;30.698;104.050;2022-07-23T08:59:52;8.48;;;4.50;;
17858;SDS011;35426;30.698;104.050;2022-07-23T09:02:27;8.80;;;4.70;;
17858;SDS011;35426;30.698;104.050;2022-07-23T09:05:02;9.90;;;5.40;;
17858;SDS011;35426;30.698;104.050;2022-07-23T09:07:36;8.48;;;4.72;;
17858;SDS011;35426;30.698;104.050;2022-07-23T09:10:50;9.50;;;4.35;;
17858;SDS011;35426;30.698;104.050;2022-07-23T09:13:28;8.18;;;5.05;;
17858;SDS011;35426;30.698;104.050;2022-07-23T09:16:06;7.97;;;4.55;;
17858;SDS011;35426;30.698;104.050;2022-07-23T09:18:44;9.48;;;4.75;;
17858;SDS011;35426;30.698;104.050;2022-07-23T09:21:20;6.95;;;4.32;;
17858;SDS011;35426;30.698;104.050;2022-07-23T09:23:58;9.05;;;4.90;;
17858;SDS011;35426;30.698;104.050;2022-07-23T09:26:35;7.70;;;4.20;;
17858;SDS011;35426;30.698;104.050;2022-07-23T09:29:15;6.47;;;5.00;;
17858;SDS011;35426;30.698;104.050;2022-07-23T09:31:50;7.90;;;4.30;;
17858;SDS011;35426;30.698;104.050;2022-07-23T09:34:28;7.68;;;4.70;;
17858;SDS011;35426;30.698;104.050;2022-07-23T09:37:16;9.93;;;4.70;;
17858;SDS011;35426;30.698;104.050;2022-07-23T09:40:05;10.55;;;4.60;;
17858;SDS011;35426;30.698;104.050;2022-07-23T09:42:42;8.65;;;4.47;;
17858;SDS011;35426;30.698;104.050;2022-07-23T09:45:30;7.40;;;4.50;;
17858;SDS011;35426;30.698;104.050;2022-07-23T09:48:11;6.43;;;4.60;;
17858;SDS011;35426;30.698;104.050;2022-07-23T09:50:46;6.15;;;4.40;;
17858;SDS011;35426;30.698;104.050;2022-07-23T09:53:25;6.72;;;4.50;;
17858;SDS011;35426;30.698;104.050;2022-07-23T09:55:58;7.43;;;4.65;;
17858;SDS011;35426;30.698;104.050;2022-07-23T09:58:35;5.85;;;4.50;;
17858;SDS011;35426;30.698;104.050;2022-07-23T10:01:17;6.43;;;4.55;;
17858;SDS011;35426;30.698;104.050;2022-07-23T10:03:51;5.45;;;4.07;;
17858;SDS011;35426;30.698;104.050;2022-07-23T10:06:43;10.27;;;4.82;;
17858;SDS011;35426;30.698;104.050;2022-07-23T10:09:37;7.97;;;4.80;;
17858;SDS011;35426;30.698;104.050;2022-07-23T10:12:38;10.05;;;5.65;;
17858;SDS011;35426;30.698;104.050;2022-07-23T10:15:28;8.30;;;5.32;;
17858;SDS011;35426;30.698;104.050;2022-07-23T10:18:03;7.85;;;4.50;;
17858;SDS011;35426;30.698;104.050;2022-07-23T10:20:37;7.82;;;5.10;;
17858;SDS011;35426;30.698;104.050;2022-07-23T10:23:14;9.13;;;5.10;;
17858;SDS011;35426;30.698;104.050;2022-07-23T10:25:54;8.35;;;4.88;;
17858;SDS011;35426;30.698;104.050;2022-07-23T10:31:31;8.65;;;4.80;;
17858;SDS011;35426;30.698;104.050;2022-07-23T10:34:34;8.15;;;4.88;;
17858;SDS011;35426;30.698;104.050;2022-07-23T10:37:14;14.10;;;5.32;;
17858;SDS011;35426;30.698;104.050;2022-07-23T10:40:09;10.27;;;4.72;;
17858;SDS011;35426;30.698;104.050;2022-07-23T10:42:45;9.45;;;4.60;;
17858;SDS011;35426;30.698;104.050;2022-07-23T10:45:25;10.77;;;4.68;;
17858;SDS011;35426;30.698;104.050;2022-07-23T10:48:14;8.20;;;4.60;;
17858;SDS011;35426;30.698;104.050;2022-07-23T10:53:54;11.45;;;5.00;;
17858;SDS011;35426;30.698;104.050;2022-07-23T11:02:47;10.85;;;4.93;;
17858;SDS011;35426;30.698;104.050;2022-07-23T11:05:22;7.72;;;4.88;;
17858;SDS011;35426;30.698;104.050;2022-07-23T11:11:09;10.32;;;5.70;;
17858;SDS011;35426;30.698;104.050;2022-07-23T11:13:44;16.30;;;6.55;;
17858;SDS011;35426;30.698;104.050;2022-07-23T11:16:23;12.18;;;7.13;;
17858;SDS011;35426;30.698;104.050;2022-07-23T11:19:04;13.77;;;8.13;;
17858;SDS011;35426;30.698;104.050;2022-07-23T11:21:51;16.15;;;9.45;;
17858;SDS011;35426;30.698;104.050;2022-07-23T11:24:27;21.55;;;10.07;;
17858;SDS011;35426;30.698;104.050;2022-07-23T11:27:02;21.30;;;10.52;;
17858;SDS011;35426;30.698;104.050;2022-07-23T11:29:45;29.20;;;11.57;;
17858;SDS011;35426;30.698;104.050;2022-07-23T11:32:24;23.70;;;11.48;;
17858;SDS011;35426;30.698;104.050;2022-07-23T11:35:20;21.17;;;11.90;;
17858;SDS011;35426;30.698;104.050;2022-07-23T11:38:07;27.05;;;11.63;;
17858;SDS011;35426;30.698;104.050;2022-07-23T11:40:50;23.10;;;12.20;;
17858;SDS011;35426;30.698;104.050;2022-07-23T11:43:27;25.70;;;13.07;;
17858;SDS011;35426;30.698;104.050;2022-07-23T11:46:02;21.42;;;12.93;;
17858;SDS011;35426;30.698;104.050;2022-07-23T11:48:35;26.05;;;12.55;;
17858;SDS011;35426;30.698;104.050;2022-07-23T11:51:09;28.30;;;13.48;;
17858;SDS011;35426;30.698;104.050;2022-07-23T11:53:44;26.55;;;13.98;;
17858;SDS011;35426;30.698;104.050;2022-07-23T11:56:20;25.30;;;14.57;;
17858;SDS011;35426;30.698;104.050;2022-07-23T11:58:54;23.52;;;14.63;;
17858;SDS011;35426;30.698;104.050;2022-07-23T12:01:29;28.50;;;15.02;;
17858;SDS011;35426;30.698;104.050;2022-07-23T12:04:03;24.03;;;14.60;;
17858;SDS011;35426;30.698;104.050;2022-07-23T12:06:38;28.50;;;15.50;;
17858;SDS011;35426;30.698;104.050;2022-07-23T12:09:13;30.38;;;16.13;;
17858;SDS011;35426;30.698;104.050;2022-07-23T12:12:01;29.30;;;18.08;;
17858;SDS011;35426;30.698;104.050;2022-07-23T12:14:52;32.87;;;17.17;;
17858;SDS011;35426;30.698;104.050;2022-07-23T12:17:30;26.37;;;16.83;;
17858;SDS011;35426;30.698;104.050;2022-07-23T12:20:19;27.30;;;16.88;;
17858;SDS011;35426;30.698;104.050;2022-07-23T12:22:55;36.17;;;17.63;;
17858;SDS011;35426;30.698;104.050;2022-07-23T12:25:30;40.47;;;18.43;;
17858;SDS011;35426;30.698;104.050;2022-07-23T12:28:07;44.30;;;17.97;;
17858;SDS011;35426;30.698;104.050;2022-07-23T12:30:42;46.87;;;18.03;;
17858;SDS011;35426;30.698;104.050;2022-07-23T12:33:21;45.73;;;18.50;;
17858;SDS011;35426;30.698;104.050;2022-07-23T12:35:58;39.37;;;17.47;;
17858;SDS011;35426;30.698;104.050;2022-07-23T12:38:37;38.20;;;17.87;;
17858;SDS011;35426;30.698;104.050;2022-07-23T12:41:12;36.83;;;17.30;;
17858;SDS011;35426;30.698;104.050;2022-07-23T12:43:47;40.50;;;20.73;;
17858;SDS011;35426;30.698;104.050;2022-07-23T12:46:22;41.07;;;20.63;;
17858;SDS011;35426;30.698;104.050;2022-07-23T12:48:59;38.37;;;20.70;;
17858;SDS011;35426;30.698;104.050;2022-07-23T12:51:33;40.90;;;21.87;;
17858;SDS011;35426;30.698;104.050;2022-07-23T12:54:15;40.60;;;22.30;;
17858;SDS011;35426;30.698;104.050;2022-07-23T12:56:51;40.20;;;23.03;;
17858;SDS011;35426;30.698;104.050;2022-07-23T12:59:30;45.20;;;22.57;;
17858;SDS011;35426;30.698;104.050;2022-07-23T13:02:04;42.13;;;21.83;;
17858;SDS011;35426;30.698;104.050;2022-07-23T13:04:43;40.77;;;21.90;;
17858;SDS011;35426;30.698;104.050;2022-07-23T13:07:18;39.37;;;22.20;;
17858;SDS011;35426;30.698;104.050;2022-07-23T13:09:52;43.00;;;21.77;;
17858;SDS011;35426;30.698;104.050;2022-07-23T13:12:26;42.80;;;23.37;;
17858;SDS011;35426;30.698;104.050;2022-07-23T13:15:03;42.70;;;23.17;;
17858;SDS011;35426;30.698;104.050;2022-07-23T13:17:37;45.57;;;22.53;;
17858;SDS011;35426;30.698;104.050;2022-07-23T13:20:14;42.00;;;22.30;;
17858;SDS011;35426;30.698;104.050;2022-07-23T13:22:49;40.50;;;23.20;;
17858;SDS011;35426;30.698;104.050;2022-07-23T13:25:23;41.23;;;21.97;;
17858;SDS011;35426;30.698;104.050;2022-07-23T13:27:57;41.70;;;23.67;;
17858;SDS011;35426;30.698;104.050;2022-07-23T13:30:51;45.83;;;24.10;;
17858;SDS011;35426;30.698;104.050;2022-07-23T13:33:26;46.23;;;23.63;;
17858;SDS011;35426;30.698;104.050;2022-07-23T13:36:00;43.27;;;22.90;;
17858;SDS011;35426;30.698;104.050;2022-07-23T13:38:34;44.13;;;23.17;;
17858;SDS011;35426;30.698;104.050;2022-07-23T13:41:08;42.83;;;24.03;;
17858;SDS011;35426;30.698;104.050;2022-07-23T13:43:42;39.10;;;21.77;;
17858;SDS011;35426;30.698;104.050;2022-07-23T13:46:18;37.73;;;21.83;;
17858;SDS011;35426;30.698;104.050;2022-07-23T13:48:53;37.47;;;21.77;;
17858;SDS011;35426;30.698;104.050;2022-07-23T13:51:29;38.10;;;22.60;;
17858;SDS011;35426;30.698;104.050;2022-07-23T13:54:04;38.30;;;22.03;;
17858;SDS011;35426;30.698;104.050;2022-07-23T13:56:38;41.63;;;23.10;;
17858;SDS011;35426;30.698;104.050;2022-07-23T13:59:12;42.53;;;23.60;;
17858;SDS011;35426;30.698;104.050;2022-07-23T14:01:48;43.63;;;24.00;;
17858;SDS011;35426;30.698;104.050;2022-07-23T14:04:42;50.00;;;23.53;;
17858;SDS011;35426;30.698;104.050;2022-07-23T14:07:21;39.30;;;24.00;;
17858;SDS011;35426;30.698;104.050;2022-07-23T14:09:55;42.23;;;24.50;;
17858;SDS011;35426;30.698;104.050;2022-07-23T14:12:30;48.17;;;26.23;;
17858;SDS011;35426;30.698;104.050;2022-07-23T14:15:05;48.90;;;25.80;;
17858;SDS011;35426;30.698;104.050;2022-07-23T14:17:43;45.13;;;27.07;;
17858;SDS011;35426;30.698;104.050;2022-07-23T14:20:20;45.20;;;26.67;;
17858;SDS011;35426;30.698;104.050;2022-07-23T14:22:54;50.57;;;27.00;;
17858;SDS011;35426;30.698;104.050;2022-07-23T14:25:33;44.83;;;25.93;;
17858;SDS011;35426;30.698;104.050;2022-07-23T14:28:08;44.37;;;28.07;;
17858;SDS011;35426;30.698;104.050;2022-07-23T14:30:42;48.37;;;27.73;;
17858;SDS011;35426;30.698;104.050;2022-07-23T14:33:19;46.87;;;27.00;;
17858;SDS011;35426;30.698;104.050;2022-07-23T14:35:54;50.77;;;27.23;;
17858;SDS011;35426;30.698;104.050;2022-07-23T14:38:28;51.10;;;27.47;;
17858;SDS011;35426;30.698;104.050;2022-07-23T14:41:03;45.60;;;27.97;;
17858;SDS011;35426;30.698;104.050;2022-07-23T14:43:39;47.10;;;28.73;;
17858;SDS011;35426;30.698;104.050;2022-07-23T14:46:15;46.03;;;27.80;;
17858;SDS011;35426;30.698;104.050;2022-07-23T14:48:51;51.10;;;27.97;;
17858;SDS011;35426;30.698;104.050;2022-07-23T14:51:26;56.50;;;29.73;;
17858;SDS011;35426;30.698;104.050;2022-07-23T14:54:01;51.00;;;30.27;;
17858;SDS011;35426;30.698;104.050;2022-07-23T14:56:35;52.07;;;29.23;;
17858;SDS011;35426;30.698;104.050;2022-07-23T14:59:10;50.63;;;29.40;;
17858;SDS011;35426;30.698;104.050;2022-07-23T15:01:48;57.67;;;31.23;;
17858;SDS011;35426;30.698;104.050;2022-07-23T15:04:29;54.57;;;31.03;;
17858;SDS011;35426;30.698;104.050;2022-07-23T15:07:05;52.37;;;30.37;;
17858;SDS011;35426;30.698;104.050;2022-07-23T15:09:40;58.47;;;32.00;;
17858;SDS011;35426;30.698;104.050;2022-07-23T15:12:16;59.13;;;31.80;;
17858;SDS011;35426;30.698;104.050;2022-07-23T15:14:53;53.53;;;30.17;;
17858;SDS011;35426;30.698;104.050;2022-07-23T15:17:28;55.00;;;31.10;;